• Join FlightAware (Why Join?)
  • Login
  • US Flag 
02:51PM EDT


 

Airport Tracker/Info


-or-


 

Live Flight TrackerFlight Track Log ✈ AWE3397 ✈ 15-May-2013 ✈ KMHT - KPHL

Flight Track Log - Related Links

Times and Time Zones

All times are in EDT time to prevent confusion due to time zone crossing. See the AWE3397 flight status page for this flight to view local times or setup timezone preferences in your user account.

Time Position Orientation Groundspeed Altitude Reporting Facility
EDT Latitude Longitude Course Direction KTS MPH feet Rate Location/Type
05:33AM 42.9500 -71.4167 270° West 157 181 1,100  Level KA90
05:34AM 43.0083 -71.3953 15° North 189 217 3,800 3,240 Climbing Boston Center
05:35AM 43.0486 -71.4714 306° West 217 250 8,300 3,600 Climbing Boston Center
05:36AM 42.9500 -71.9324 270° West  Level FlightAware Approximate
05:36AM 43.0536 -71.5706 274° West 222 255 11,100  Level Boston Center
05:37AM 42.9501 -72.0585 270° West  Level FlightAware Approximate
05:37AM 43.0481 -71.6928 266° West 305 351 14,400  Level Boston Center
05:38AM 42.9500 -72.1846 270° West  Level FlightAware Approximate
05:38AM 43.0447 -71.8150 268° West 325 374 17,100  Level Boston Center
05:39AM 43.0433 -71.9458 269° West 339 390 19,700 2,700 Climbing Boston Center
05:40AM 43.0375 -72.0794 267° West 345 397 22,500 2,280 Climbing Boston Center
05:41AM 43.0358 -72.2158 269° West 350 403 24,300 1,740 Climbing Boston Center
05:42AM 43.0361 -72.3606 270° West 367 422 26,000 840 Climbing Boston Center
05:43AM 43.0214 -72.5139 263° West 377 434 26,000  Level Boston Center
05:44AM 42.9608 -72.6669 242° Southwest 431 496 26,000  Level Boston Center
05:45AM 42.9125 -72.8200 247° West 441 507 26,000  Level Boston Center
05:46AM 42.8661 -72.9528 245° Southwest 441 507 26,000  Level Boston Center
05:47AM 42.8172 -73.1136 248° West 446 513 26,000  Level Boston Center
05:48AM 42.7664 -73.2631 245° Southwest 446 513 26,000  Level Boston Center
05:49AM 42.7150 -73.4178 246° West 446 513 26,000  Level Boston Center
05:50AM 42.6636 -73.5667 245° Southwest 446 513 26,000  Level Boston Center
05:51AM 42.6119 -73.7181 245° Southwest 440 506 26,000  Level Boston Center
05:52AM 42.5622 -73.8664 246° West 440 506 26,000  Level Boston Center
05:53AM 42.5125 -74.0117 245° Southwest 440 506 26,000  Level Boston Center
05:54AM 42.4625 -74.1597 245° Southwest 440 506 26,000  Level Boston Center
05:55AM 42.4100 -74.3072 244° Southwest 440 506 26,000  Level Boston Center
05:56AM 42.3575 -74.4547 244° Southwest 440 506 26,000  Level Boston Center
05:58AM 42.2478 -74.7600 244° Southwest 438 504 26,000 -660 Level New York Center
05:59AM 42.1950 -74.9025 243° Southwest 438 504 23,900 -2,340 Descending New York Center
06:00AM 42.1011 -75.0250 224° Southwest 438 504 21,400 -2,400 Descending New York Center
06:01AM 41.9939 -75.1103 211° Southwest 431 496 19,200 -1,200 Descending New York Center
06:02AM 41.8931 -75.1956 212° Southwest 443 510 19,000 -720 Descending New York Center
06:03AM 41.7919 -75.2778 211° Southwest 434 499 17,800 -1,620 Descending New York Center
06:04AM 41.6953 -75.3547 211° Southwest 424 488 15,900 -1,920 Descending New York Center
06:05AM 41.6094 -75.4236 211° Southwest 411 473 14,000 -1,800 Descending New York Center
06:06AM 41.5192 -75.4950 211° Southwest 397 457 12,300 -1,080 Descending New York Center
06:07AM 41.4244 -75.5711 211° Southwest 374 430 11,900 -240 Descending New York Center
06:08AM 41.3361 -75.6422 211° Southwest 379 436 11,900  Level New York Center
06:09AM 41.2425 -75.6908 201° Southwest 374 430 11,900  Level New York Center
06:10AM 41.1467 -75.6919 181° South 350 403 11,900 -540 Level New York Center
06:11AM 41.0572 -75.6883 178° South 358 412 10,900 -900 Descending New York Center
06:12AM 40.9550 -75.6892 180° South 344 396 10,100 -480 Descending New York Center
06:13AM 40.8781 -75.6864 178° South 322 371 10,000 -60 Descending New York Center
06:14AM 40.7928 -75.6856 180° South 310 357 10,000  Level New York Center
06:15AM 40.6989 -75.6844 179° South 310 357 10,000  Level New York Center
06:16AM 40.6136 -75.6836 180° South 310 357 10,000  Level New York Center
06:17AM 40.5494 -75.6192 143° Southeast 310 357 10,000  Level New York Center
06:18AM 40.4972 -75.5200 125° Southeast 316 364 10,000  Level New York Center
06:19AM 40.4325 -75.4228 131° Southeast 321 369 10,000 -60 Level New York Center
06:20AM 40.3508 -75.3736 155° Southeast 321 369 9,900 -900 Descending New York Center
06:21AM 40.2775 -75.3361 159° South 321 369 8,200 -1,740 Descending New York Center
06:22AM 40.1931 -75.3631 194° South 288 331 6,500 -1,140 Descending New York Center
06:23AM 40.1247 -75.3994 202° Southwest 276 318 6,000 -300 Descending New York Center
06:24AM 40.0717 -75.4256 201° Southwest 235 270 6,000  Level New York Center
06:25AM 40.0186 -75.4519 201° Southwest 200 230 6,000 -120 Level New York Center
06:26AM 39.9694 -75.4783 202° Southwest 195 224 5,800 -780 Descending New York Center
06:27AM 39.9286 -75.5108 211° Southwest 186 214 4,500 -1,320 Descending New York Center
06:28AM 39.8911 -75.5597 225° Southwest 186 214 3,300 -780 Descending New York Center
06:29AM 39.8439 -75.5431 165° South 163 188 3,000 -240 Descending New York Center
06:30AM 39.8333 -75.5000 108° East 210 242 3,000 -300 Level Philadelphia TRACON
06:31AM 39.8333 -75.4333 90° East 210 242 2,600 -840 Descending Philadelphia TRACON
06:32AM 39.8500 -75.3667 72° East 168 193 1,400 -960 Descending Philadelphia TRACON
06:33AM 39.8500 -75.3333 90° East 121 139 900 -660 Descending Philadelphia TRACON
06:35AM 39.8722 -75.2409 73° East  Level Estimated
06:42AM 39.8722 -75.2409 101° East  Level Estimated